createdAt,value
2018-12-05T00:01:27.699Z,94960.03
2018-12-05T00:03:54.414Z,94965.98
2018-12-05T00:06:21.061Z,94969.48
2018-12-05T00:08:47.713Z,94970.50
2018-12-05T00:11:14.363Z,94969.27
2018-12-05T00:13:41.006Z,94978.84
2018-12-05T00:16:07.729Z,94979.59
2018-12-05T00:18:34.378Z,94980.98
2018-12-05T00:21:01.158Z,94981.36
2018-12-05T00:23:27.800Z,94983.00
2018-12-05T00:25:54.531Z,94979.83
2018-12-05T00:28:21.185Z,94986.71
2018-12-05T00:30:47.888Z,94984.26
2018-12-05T00:33:14.554Z,94988.10
2018-12-05T00:35:41.218Z,94989.61
2018-12-05T00:38:07.874Z,94993.02
2018-12-05T00:40:34.531Z,94991.97
2018-12-05T00:43:01.175Z,94988.48
2018-12-05T00:45:27.873Z,94995.27
2018-12-05T00:47:54.579Z,94996.19
2018-12-05T00:50:21.287Z,94997.28
2018-12-05T00:52:47.931Z,94997.95
2018-12-05T00:55:14.594Z,94993.80
2018-12-05T00:57:41.251Z,94996.77
2018-12-05T01:00:07.922Z,94998.30
2018-12-05T01:02:34.561Z,94994.88
2018-12-05T01:05:01.245Z,94996.91
2018-12-05T01:07:27.956Z,94991.47
2018-12-05T01:09:54.692Z,94993.02
2018-12-05T01:12:21.379Z,94993.98
2018-12-05T01:14:48.030Z,94997.66
2018-12-05T01:17:14.736Z,95000.94
2018-12-05T01:19:41.379Z,95003.16
2018-12-05T01:22:08.030Z,94994.44
2018-12-05T01:24:34.769Z,95000.00
2018-12-05T01:27:01.496Z,94986.47
2018-12-05T01:29:28.136Z,94994.55
2018-12-05T01:31:54.989Z,94990.17
2018-12-05T01:34:21.665Z,94994.23
2018-12-05T01:36:48.307Z,95000.87
2018-12-05T01:39:15.004Z,94994.74
2018-12-05T01:41:41.643Z,94996.11
2018-12-05T01:44:08.341Z,94997.17
2018-12-05T01:46:34.987Z,94993.70
2018-12-05T01:49:01.647Z,95003.06
2018-12-05T01:51:28.377Z,95001.03
2018-12-05T01:53:55.028Z,95002.42
2018-12-05T01:56:21.736Z,95003.66
2018-12-05T01:58:48.383Z,95002.94
2018-12-05T02:01:15.035Z,95008.24
2018-12-05T02:03:41.671Z,95009.63
2018-12-05T02:06:08.361Z,95008.58
2018-12-05T02:08:34.999Z,95014.39
2018-12-05T02:11:01.690Z,95014.98
2018-12-05T02:13:28.324Z,95015.15
2018-12-05T02:15:54.969Z,95018.44
2018-12-05T02:18:21.631Z,95017.17
2018-12-05T02:20:48.315Z,95018.56
2018-12-05T02:23:14.959Z,95026.27
2018-12-05T02:25:41.656Z,95024.63
2018-12-05T02:28:08.318Z,95026.39
2018-12-05T02:30:34.966Z,95026.02
2018-12-05T02:33:01.665Z,95019.95
2018-12-05T02:35:28.303Z,95029.43
2018-12-05T02:37:54.998Z,95030.23
2018-12-05T02:40:21.700Z,95024.87
2018-12-05T02:42:48.386Z,95031.87
2018-12-05T02:45:15.055Z,95027.28
2018-12-05T02:47:41.698Z,95030.81
2018-12-05T02:50:08.352Z,95028.25
2018-12-05T02:52:35.006Z,95026.69
2018-12-05T02:55:01.660Z,95032.59
2018-12-05T02:57:28.423Z,95044.22
2018-12-05T02:59:55.063Z,95037.81
2018-12-05T03:02:21.762Z,95038.57
2018-12-05T03:04:48.470Z,95048.89
2018-12-05T03:07:15.107Z,95044.60
2018-12-05T03:09:41.765Z,95022.36
2018-12-05T03:12:08.461Z,95049.03
2018-12-05T03:14:35.104Z,95049.69
2018-12-05T03:17:01.799Z,95050.02
2018-12-05T03:19:28.451Z,95053.95
2018-12-05T03:21:55.166Z,95061.78
2018-12-05T03:24:21.817Z,95066.00
2018-12-05T03:26:48.458Z,95067.93
2018-12-05T03:29:15.147Z,95064.56
2018-12-05T03:31:42.112Z,95066.08
2018-12-05T03:34:08.758Z,95066.59
2018-12-05T03:36:35.451Z,95066.20
2018-12-05T03:39:02.100Z,95067.48
2018-12-05T03:41:28.792Z,95072.52
2018-12-05T03:43:55.440Z,95073.04
2018-12-05T03:46:22.137Z,95075.05
2018-12-05T03:48:48.773Z,95080.23
2018-12-05T03:51:15.424Z,95085.25
2018-12-05T03:53:42.069Z,95085.88
2018-12-05T03:56:08.813Z,95089.42
2018-12-05T03:58:35.493Z,95091.83
2018-12-05T04:01:02.138Z,95091.45
2018-12-05T04:03:28.803Z,95091.31
2018-12-05T04:05:55.466Z,95098.89
2018-12-05T04:08:22.129Z,95101.08
2018-12-05T04:10:48.790Z,95096.75
2018-12-05T04:13:15.435Z,95096.16
2018-12-05T04:15:42.079Z,95101.31
2018-12-05T04:18:08.743Z,95106.05
2018-12-05T04:20:35.396Z,95110.93
2018-12-05T04:23:02.036Z,95105.63
2018-12-05T04:25:28.679Z,95108.41
2018-12-05T04:27:55.333Z,95109.25
2018-12-05T04:30:21.980Z,95112.60
2018-12-05T04:32:48.639Z,95110.75
2018-12-05T04:35:15.288Z,95108.76
2018-12-05T04:37:41.950Z,95108.19
2018-12-05T04:40:08.606Z,95115.52
2018-12-05T04:42:35.247Z,95118.78
2018-12-05T04:45:01.898Z,95122.87
2018-12-05T04:47:28.636Z,95120.02
2018-12-05T04:49:55.289Z,95115.34
2018-12-05T04:52:21.930Z,95118.93
2018-12-05T04:54:48.582Z,95109.52
2018-12-05T04:57:15.227Z,95124.86
2018-12-05T04:59:41.861Z,95121.30
2018-12-05T05:02:08.518Z,95127.38
2018-12-05T05:04:35.182Z,95127.71
2018-12-05T05:07:01.817Z,95119.59
2018-12-05T05:09:28.450Z,95135.55
2018-12-05T05:11:55.097Z,95133.25
2018-12-05T05:14:24.379Z,95138.84
2018-12-05T05:16:51.053Z,95142.30
2018-12-05T05:19:17.691Z,95142.41
2018-12-05T05:21:44.345Z,95136.72
2018-12-05T05:24:10.992Z,95140.19
2018-12-05T05:26:37.632Z,95143.86
2018-12-05T05:29:04.282Z,95143.58
2018-12-05T05:31:30.914Z,95153.45
2018-12-05T05:33:57.565Z,95153.33
2018-12-05T05:36:24.203Z,95146.13
2018-12-05T05:38:50.865Z,95155.86
2018-12-05T05:41:17.505Z,95160.05
2018-12-05T05:43:44.160Z,95155.25
2018-12-05T05:46:10.803Z,95157.73
2018-12-05T05:48:37.459Z,95166.03
2018-12-05T05:51:04.100Z,95168.11
2018-12-05T05:53:30.748Z,95167.30
2018-12-05T05:55:57.386Z,95179.51
2018-12-05T05:58:24.043Z,95192.00
2018-12-05T06:00:50.698Z,95189.86
2018-12-05T06:03:17.343Z,95194.70
2018-12-05T06:05:44.069Z,95198.14
2018-12-05T06:08:10.696Z,95201.97
2018-12-05T06:10:37.333Z,95200.87
2018-12-05T06:13:04.022Z,95207.14
2018-12-05T06:15:30.668Z,95209.37
2018-12-05T06:17:57.315Z,95209.97
2018-12-05T06:20:23.965Z,95217.78
2018-12-05T06:22:50.624Z,95220.07
2018-12-05T06:25:17.284Z,95221.29
2018-12-05T06:27:43.920Z,95217.20
2018-12-05T06:30:10.579Z,95225.00
2018-12-05T06:32:37.230Z,95223.28
2018-12-05T06:35:03.874Z,95234.73
2018-12-05T06:37:30.522Z,95240.62
2018-12-05T06:39:57.160Z,95244.63
2018-12-05T06:42:23.871Z,95257.62
2018-12-05T06:44:50.515Z,95261.16
2018-12-05T06:47:17.154Z,95263.56
2018-12-05T06:49:43.798Z,95266.05
2018-12-05T06:52:10.433Z,95262.50
2018-12-05T06:54:37.141Z,95267.65
2018-12-05T06:57:03.796Z,95269.02
2018-12-05T06:59:30.439Z,95268.27
2018-12-05T07:01:57.091Z,95281.05
2018-12-05T07:04:23.767Z,95270.38
2018-12-05T07:06:50.407Z,95278.05
2018-12-05T07:09:17.064Z,95275.45
2018-12-05T07:11:43.752Z,95288.27
2018-12-05T07:14:10.446Z,95282.27
2018-12-05T07:16:37.101Z,95282.44
2018-12-05T07:19:03.742Z,95290.76
2018-12-05T07:21:30.396Z,95303.29
2018-12-05T07:23:57.030Z,95289.56
2018-12-05T07:26:23.683Z,95300.70
2018-12-05T07:28:50.329Z,95297.27
2018-12-05T07:31:17.136Z,95301.91
2018-12-05T07:33:43.782Z,95295.67
2018-12-05T07:36:10.427Z,95309.41
2018-12-05T07:38:37.080Z,95307.01
2018-12-05T07:41:03.725Z,95307.50
2018-12-05T07:43:31.378Z,95310.50
2018-12-05T07:45:58.058Z,95304.41
2018-12-05T07:48:24.712Z,95310.09
2018-12-05T07:50:51.373Z,95325.90
2018-12-05T07:53:18.525Z,95321.79
2018-12-05T07:55:47.853Z,95331.76
2018-12-05T07:58:14.588Z,95331.14
2018-12-05T08:00:41.308Z,95331.70
2018-12-05T08:03:07.977Z,95339.62
2018-12-05T08:05:34.793Z,95329.89
2018-12-05T08:08:03.004Z,95344.37
2018-12-05T08:10:28.677Z,95349.89
2018-12-05T08:12:55.427Z,95357.30
2018-12-05T08:15:22.108Z,95366.31
2018-12-05T08:17:49.846Z,95355.47
2018-12-05T08:20:16.659Z,95374.11
2018-12-05T08:22:43.388Z,95374.28
2018-12-05T08:25:10.123Z,95381.72
2018-12-05T08:27:36.885Z,95386.36
2018-12-05T08:30:04.024Z,95388.66
2018-12-05T08:32:30.775Z,95391.11
2018-12-05T08:34:57.435Z,95390.52
2018-12-05T08:37:24.164Z,95401.53
2018-12-05T08:39:51.209Z,95397.84
2018-12-05T08:42:18.349Z,95404.05
2018-12-05T08:44:45.080Z,95390.27
2018-12-05T08:47:12.771Z,95413.45
2018-12-05T08:49:39.592Z,95409.50
2018-12-05T08:52:07.380Z,95407.55
2018-12-05T08:54:36.867Z,95405.71
2018-12-05T08:57:03.557Z,95407.47
2018-12-05T08:59:32.960Z,95419.02
2018-12-05T09:01:59.712Z,95408.02
2018-12-05T09:04:26.389Z,95416.98
2018-12-05T09:06:55.234Z,95412.55
2018-12-05T09:09:21.941Z,95408.17
2018-12-05T09:11:48.592Z,95414.52
2018-12-05T09:14:17.324Z,95414.28
2018-12-05T09:16:44.039Z,95415.42
2018-12-05T09:19:10.806Z,95420.48
2018-12-05T09:21:39.647Z,95403.13
2018-12-05T09:24:06.303Z,95412.40
2018-12-05T09:26:32.946Z,95409.41
2018-12-05T09:28:59.602Z,95407.36
2018-12-05T09:31:26.926Z,95411.87
2018-12-05T09:33:53.697Z,95402.63
2018-12-05T09:36:20.342Z,95398.55
2018-12-05T09:38:47.081Z,95413.95
2018-12-05T09:41:13.734Z,95421.26
2018-12-05T09:43:40.452Z,95414.29
2018-12-05T09:46:07.111Z,95422.02
2018-12-05T09:48:33.835Z,95428.97
2018-12-05T09:51:00.562Z,95430.40
2018-12-05T09:53:27.326Z,95424.88
2018-12-05T09:55:54.080Z,95431.02
2018-12-05T09:58:20.796Z,95433.93
2018-12-05T10:00:48.559Z,95426.34
2018-12-05T10:03:15.297Z,95424.81
2018-12-05T10:05:42.070Z,95424.31
2018-12-05T10:08:08.732Z,95432.86
2018-12-05T10:10:36.452Z,95422.25
2018-12-05T10:13:03.086Z,95427.53
2018-12-05T10:15:29.805Z,95429.42
2018-12-05T10:17:56.480Z,95421.06
2018-12-05T10:20:23.134Z,95424.51
2018-12-05T10:22:49.816Z,95417.78
2018-12-05T10:25:16.428Z,95417.87
2018-12-05T10:27:43.070Z,95419.19
2018-12-05T10:30:09.721Z,95426.30
2018-12-05T10:32:36.368Z,95435.42
2018-12-05T10:35:03.014Z,95439.24
2018-12-05T10:37:29.679Z,95430.69
2018-12-05T10:39:56.379Z,95427.36
2018-12-05T10:42:23.059Z,95417.92
2018-12-05T10:44:49.761Z,95410.36
2018-12-05T10:47:16.536Z,95431.84
2018-12-05T10:49:43.194Z,95430.88
2018-12-05T10:52:09.844Z,95428.86
2018-12-05T10:54:36.531Z,95435.37
2018-12-05T10:57:03.171Z,95443.41
2018-12-05T10:59:29.826Z,95430.98
2018-12-05T11:01:56.496Z,95425.63
2018-12-05T11:04:23.151Z,95426.30
2018-12-05T11:06:50.079Z,95428.47
2018-12-05T11:09:16.734Z,95427.32
2018-12-05T11:11:43.490Z,95411.72
2018-12-05T11:14:10.140Z,95415.11
2018-12-05T11:16:36.791Z,95400.80
2018-12-05T11:19:03.461Z,95410.67
2018-12-05T11:21:30.125Z,95407.09
2018-12-05T11:23:57.006Z,95409.95
2018-12-05T11:26:23.745Z,95408.75
2018-12-05T11:28:50.995Z,95393.03
2018-12-05T11:31:18.138Z,95403.15
2018-12-05T11:33:44.839Z,95407.25
2018-12-05T11:36:11.615Z,95404.45
2018-12-05T11:38:38.463Z,95400.67
2018-12-05T11:41:07.872Z,95409.41
2018-12-05T11:43:34.610Z,95409.16
2018-12-05T11:46:01.436Z,95411.77
2018-12-05T11:48:28.497Z,95410.24
2018-12-05T11:50:55.325Z,95411.64
2018-12-05T11:53:22.031Z,95410.48
2018-12-05T11:55:48.791Z,95412.63
2018-12-05T11:58:15.454Z,95421.41
2018-12-05T12:00:42.291Z,95423.69
2018-12-05T12:03:09.451Z,95420.91
2018-12-05T12:05:36.296Z,95427.84
2018-12-05T12:08:03.443Z,95427.13
2018-12-05T12:10:30.184Z,95434.55
2018-12-05T12:12:57.965Z,95434.92
2018-12-05T12:15:24.779Z,95430.15
2018-12-05T12:17:51.885Z,95436.31
2018-12-05T12:20:18.674Z,95432.02
2018-12-05T12:22:46.545Z,95439.73
2018-12-05T12:25:13.335Z,95435.97
2018-12-05T12:27:40.062Z,95443.33
2018-12-05T12:30:06.862Z,95444.05
2018-12-05T12:32:36.795Z,95443.20
2018-12-05T12:35:03.627Z,95444.83
2018-12-05T12:37:30.340Z,95446.97
2018-12-05T12:39:57.464Z,95448.34
2018-12-05T12:42:24.491Z,95450.77
2018-12-05T12:44:51.221Z,95449.27
2018-12-05T12:47:18.030Z,95445.19
2018-12-05T12:49:45.903Z,95451.78
2018-12-05T12:52:13.019Z,95450.17
2018-12-05T12:54:40.100Z,95457.55
2018-12-05T12:57:08.906Z,95457.86
2018-12-05T12:59:36.131Z,95460.31
2018-12-05T13:02:03.239Z,95451.04
2018-12-05T13:04:30.033Z,95458.27
2018-12-05T13:06:57.231Z,95452.10
2018-12-05T13:09:24.025Z,95459.94
2018-12-05T13:11:53.706Z,95458.16
2018-12-05T13:14:24.931Z,95465.89
2018-12-05T13:16:52.679Z,95467.10
2018-12-05T13:19:20.612Z,95476.48
2018-12-05T13:21:48.323Z,95474.20
2018-12-05T13:24:15.039Z,95474.59
2018-12-05T13:26:41.745Z,95474.82
2018-12-05T13:29:08.448Z,95470.44
2018-12-05T13:31:35.220Z,95475.00
2018-12-05T13:34:04.860Z,95472.98
2018-12-05T13:36:31.684Z,95479.05
2018-12-05T13:38:58.420Z,95469.91
2018-12-05T13:41:25.160Z,95464.57
2018-12-05T13:43:51.909Z,95458.50
2018-12-05T13:46:18.579Z,95463.15
2018-12-05T13:48:45.236Z,95475.63
2018-12-05T13:51:11.900Z,95472.39
2018-12-05T13:53:38.550Z,95474.67
2018-12-05T13:56:05.241Z,95471.84
2018-12-05T13:58:31.941Z,95469.15
2018-12-05T14:00:58.591Z,95471.29
2018-12-05T14:03:25.245Z,95470.95
2018-12-05T14:05:51.895Z,95473.94
2018-12-05T14:08:18.541Z,95474.30
2018-12-05T14:10:45.312Z,95483.32
2018-12-05T14:13:11.956Z,95484.29
2018-12-05T14:15:38.650Z,95492.35
2018-12-05T14:18:05.313Z,95499.41
2018-12-05T14:20:31.957Z,95493.53
2018-12-05T14:22:58.622Z,95494.23
2018-12-05T14:25:25.282Z,95492.52
2018-12-05T14:27:51.980Z,95502.11
2018-12-05T14:30:18.946Z,95503.25
2018-12-05T14:32:46.693Z,95514.27
2018-12-05T14:35:13.343Z,95513.38
2018-12-05T14:37:42.382Z,95518.16
2018-12-05T14:40:09.031Z,95527.48
2018-12-05T14:42:35.731Z,95527.61
2018-12-05T14:45:02.384Z,95529.47
2018-12-05T14:47:29.108Z,95534.78
2018-12-05T14:49:55.773Z,95537.01
2018-12-05T14:52:22.662Z,95540.70
2018-12-05T14:54:49.319Z,95539.20
2018-12-05T14:57:15.966Z,95546.36
2018-12-05T14:59:42.621Z,95541.42
2018-12-05T15:02:09.307Z,95537.38
2018-12-05T15:04:35.949Z,95533.06
2018-12-05T15:07:02.608Z,95526.44
2018-12-05T15:09:29.274Z,95521.20
2018-12-05T15:11:55.977Z,95520.69
2018-12-05T15:14:22.614Z,95524.83
2018-12-05T15:16:49.261Z,95528.70
2018-12-05T15:19:15.922Z,95517.18
2018-12-05T15:21:42.562Z,95526.69
2018-12-05T15:24:09.265Z,95531.20
2018-12-05T15:26:35.985Z,95515.78
2018-12-05T15:29:02.724Z,95540.41
2018-12-05T15:31:29.431Z,95543.39
2018-12-05T15:33:56.111Z,95551.55
2018-12-05T15:36:33.038Z,95554.72
2018-12-05T15:38:59.835Z,95558.88
2018-12-05T15:41:26.499Z,95554.83
2018-12-05T15:43:53.179Z,95548.63
2018-12-05T15:46:19.943Z,95547.28
2018-12-05T15:48:46.635Z,95560.91
2018-12-05T15:51:13.439Z,95563.44
2018-12-05T15:53:40.489Z,95562.20
2018-12-05T15:56:07.138Z,95565.22
2018-12-05T15:58:33.832Z,95563.00
2018-12-05T16:01:00.617Z,95559.30
2018-12-05T16:03:27.195Z,95567.69
2018-12-05T16:05:53.833Z,95572.63
2018-12-05T16:08:20.685Z,95567.05
2018-12-05T16:10:47.311Z,95559.92
2018-12-05T16:13:13.954Z,95564.41
2018-12-05T16:15:40.597Z,95572.50
2018-12-05T16:18:07.250Z,95570.52
2018-12-05T16:20:33.902Z,95568.23
2018-12-05T16:23:00.598Z,95577.98
2018-12-05T16:25:27.242Z,95572.28
2018-12-05T16:27:53.904Z,95569.86
2018-12-05T16:30:20.555Z,95577.02
2018-12-05T16:32:47.286Z,95582.38
2018-12-05T16:35:13.932Z,95573.14
2018-12-05T16:37:40.592Z,95576.02
2018-12-05T16:40:07.303Z,95582.89
2018-12-05T16:42:33.966Z,95579.66
2018-12-05T16:45:00.620Z,95582.95
2018-12-05T16:47:27.269Z,95590.84
2018-12-05T16:49:53.979Z,95588.02
2018-12-05T16:52:20.616Z,95600.17
2018-12-05T16:54:47.253Z,95598.08
2018-12-05T16:57:13.966Z,95595.52
2018-12-05T16:59:40.603Z,95595.45
2018-12-05T17:02:07.312Z,95604.66
2018-12-05T17:04:33.968Z,95597.13
2018-12-05T17:07:00.649Z,95606.88
2018-12-05T17:09:27.298Z,95604.00
2018-12-05T17:11:54.011Z,95601.56
2018-12-05T17:14:20.656Z,95612.58
2018-12-05T17:16:47.306Z,95608.81
2018-12-05T17:19:14.005Z,95616.28
2018-12-05T17:21:40.650Z,95623.18
2018-12-05T17:24:07.300Z,95628.02
2018-12-05T17:26:33.953Z,95629.35
2018-12-05T17:29:00.602Z,95627.31
2018-12-05T17:31:27.303Z,95625.20
2018-12-05T17:33:54.000Z,95630.42
2018-12-05T17:36:20.634Z,95629.82
2018-12-05T17:38:47.289Z,95635.13
2018-12-05T17:41:13.955Z,95627.31
2018-12-05T17:43:40.657Z,95634.25
2018-12-05T17:46:07.305Z,95635.39
2018-12-05T17:48:33.954Z,95634.59
2018-12-05T17:51:00.610Z,95639.69
2018-12-05T17:53:27.245Z,95636.45
2018-12-05T17:55:53.892Z,95635.27
2018-12-05T17:58:20.673Z,95638.86
2018-12-05T18:00:47.364Z,95644.09
2018-12-05T18:03:14.001Z,95638.58
2018-12-05T18:05:40.711Z,95631.36
2018-12-05T18:08:07.386Z,95642.13
2018-12-05T18:10:34.183Z,95645.92
2018-12-05T18:13:00.858Z,95635.44
2018-12-05T18:15:27.524Z,95637.19
2018-12-05T18:17:54.163Z,95640.09
2018-12-05T18:20:20.879Z,95642.76
2018-12-05T18:22:47.544Z,95640.50
2018-12-05T18:25:14.201Z,95642.00
2018-12-05T18:27:40.854Z,95638.23
2018-12-05T18:30:07.496Z,95642.38
2018-12-05T18:32:34.164Z,95645.41
2018-12-05T18:35:00.852Z,95643.52
2018-12-05T18:37:27.506Z,95651.80
2018-12-05T18:39:54.150Z,95656.58
2018-12-05T18:42:20.794Z,95657.20
2018-12-05T18:44:47.451Z,95667.08
2018-12-05T18:47:14.188Z,95665.44
2018-12-05T18:49:40.837Z,95664.55
2018-12-05T18:52:07.475Z,95669.61
2018-12-05T18:54:34.173Z,95676.84
2018-12-05T18:57:00.830Z,95674.19
2018-12-05T18:59:27.475Z,95674.06
2018-12-05T19:01:54.171Z,95671.53
2018-12-05T19:04:20.822Z,95672.44
2018-12-05T19:06:47.551Z,95677.48
2018-12-05T19:09:14.238Z,95674.97
2018-12-05T19:11:40.884Z,95676.48
2018-12-05T19:14:07.535Z,95676.64
2018-12-05T19:16:34.258Z,95691.42
2018-12-05T19:19:00.894Z,95686.53
2018-12-05T19:21:29.572Z,95692.58
2018-12-05T19:23:54.218Z,95686.78
2018-12-05T19:26:20.866Z,95693.72
2018-12-05T19:28:47.536Z,95691.72
2018-12-05T19:31:19.385Z,95692.84
2018-12-05T19:33:40.838Z,95691.88
2018-12-05T19:36:07.486Z,95695.67
2018-12-05T19:38:34.190Z,95701.11
2018-12-05T19:41:00.837Z,95699.03
2018-12-05T19:43:27.495Z,95702.11
2018-12-05T19:45:54.135Z,95701.84
2018-12-05T19:48:20.882Z,95696.19
2018-12-05T19:50:47.537Z,95698.83
2018-12-05T19:53:14.227Z,95695.28
2018-12-05T19:55:40.927Z,95699.36
2018-12-05T19:58:07.579Z,95706.44
2018-12-05T20:00:34.213Z,95703.38
2018-12-05T20:03:00.903Z,95700.38
2018-12-05T20:05:27.541Z,95707.45
2018-12-05T20:07:54.186Z,95709.02
2018-12-05T20:10:20.842Z,95700.89
2018-12-05T20:12:47.613Z,95701.31
2018-12-05T20:15:14.265Z,95715.03
2018-12-05T20:17:40.972Z,95713.92
2018-12-05T20:20:07.626Z,95716.81
2018-12-05T20:22:34.280Z,95711.39
2018-12-05T20:25:00.927Z,95721.27
2018-12-05T20:27:27.564Z,95713.05
2018-12-05T20:29:54.262Z,95708.08
2018-12-05T20:32:20.906Z,95707.88
2018-12-05T20:34:47.608Z,95706.09
2018-12-05T20:37:14.319Z,95710.78
2018-12-05T20:39:41.026Z,95720.02
2018-12-05T20:42:07.687Z,95717.84
2018-12-05T20:44:34.440Z,95717.48
2018-12-05T20:47:01.094Z,95714.83
2018-12-05T20:49:27.750Z,95713.45
2018-12-05T20:51:54.395Z,95721.53
2018-12-05T20:54:21.052Z,95716.87
2018-12-05T20:56:47.686Z,95720.52
2018-12-05T20:59:14.384Z,95720.77
2018-12-05T21:01:41.037Z,95719.27
2018-12-05T21:04:07.688Z,95717.25
2018-12-05T21:06:34.373Z,95715.86
2018-12-05T21:09:01.027Z,95712.97
2018-12-05T21:11:27.675Z,95713.58
2018-12-05T21:13:54.325Z,95712.81
2018-12-05T21:16:21.022Z,95714.11
2018-12-05T21:18:47.671Z,95722.34
2018-12-05T21:21:14.367Z,95723.45
2018-12-05T21:23:41.066Z,95719.92
2018-12-05T21:26:10.408Z,95713.83
2018-12-05T21:28:37.059Z,95721.69
2018-12-05T21:31:03.719Z,95720.16
2018-12-05T21:33:30.410Z,95717.39
2018-12-05T21:35:57.098Z,95724.33
2018-12-05T21:38:23.786Z,95721.33
2018-12-05T21:40:50.424Z,95725.51
2018-12-05T21:43:17.078Z,95733.22
2018-12-05T21:45:43.717Z,95724.98
2018-12-05T21:48:10.414Z,95714.88
2018-12-05T21:50:37.050Z,95719.94
2018-12-05T21:53:03.745Z,95724.63
2018-12-05T21:55:30.398Z,95723.72
2018-12-05T21:57:57.700Z,95726.39
2018-12-05T22:00:23.693Z,95725.67
2018-12-05T22:02:50.337Z,95729.51
2018-12-05T22:05:16.982Z,95723.25
2018-12-05T22:07:43.634Z,95719.10
2018-12-05T22:10:10.326Z,95728.59
2018-12-05T22:12:36.965Z,95731.02
2018-12-05T22:15:03.618Z,95727.47
2018-12-05T22:17:30.263Z,95729.64
2018-12-05T22:19:56.958Z,95733.03
2018-12-05T22:22:23.597Z,95725.45
2018-12-05T22:24:50.315Z,95730.36
2018-12-05T22:27:16.948Z,95730.36
2018-12-05T22:29:43.596Z,95720.58
2018-12-05T22:32:10.285Z,95714.52
2018-12-05T22:34:36.925Z,95719.07
2018-12-05T22:37:03.577Z,95716.93
2018-12-05T22:39:30.233Z,95722.22
2018-12-05T22:41:56.938Z,95720.10
2018-12-05T22:44:23.581Z,95728.45
2018-12-05T22:46:50.221Z,95723.27
2018-12-05T22:49:16.998Z,95724.27
2018-12-05T22:51:43.559Z,95723.53
2018-12-05T22:54:10.207Z,95723.02
2018-12-05T22:56:36.969Z,95722.02
2018-12-05T22:59:03.626Z,95727.46
2018-12-05T23:01:30.265Z,95735.66
2018-12-05T23:03:56.908Z,95719.73
2018-12-05T23:06:23.612Z,95721.50
2018-12-05T23:08:50.244Z,95731.50
2018-12-05T23:11:16.885Z,95727.73
2018-12-05T23:13:43.541Z,95722.53
2018-12-05T23:16:10.179Z,95728.72
2018-12-05T23:18:36.872Z,95731.39
2018-12-05T23:21:03.510Z,95738.13
2018-12-05T23:23:30.167Z,95737.20
2018-12-05T23:25:56.817Z,95732.41
2018-12-05T23:28:23.460Z,95728.39
2018-12-05T23:30:50.108Z,95724.95
2018-12-05T23:33:16.774Z,95729.75
2018-12-05T23:35:43.408Z,95729.12
2018-12-05T23:38:10.036Z,95730.91
2018-12-05T23:40:36.706Z,95731.52
2018-12-05T23:43:03.337Z,95735.18
2018-12-05T23:45:29.992Z,95737.34
2018-12-05T23:47:56.654Z,95738.70
2018-12-05T23:50:23.310Z,95743.27
2018-12-05T23:52:50.049Z,95750.11
2018-12-05T23:55:16.693Z,95739.48
2018-12-05T23:57:43.330Z,95744.80
